Time;durP1;ratioP1;P1;durP2;ratioP2;P2;SDS_P1;SDS_P2;PMS_P1;PMS_P2;Temp;Humidity;BMP_temperature;BMP_pressure;BME280_temperature;BME280_humidity;BME280_pressure;Samples;Min_cycle;Max_cycle;Signal;HPM_P1;HPM_P2
2022/01/27 00:04:08;;;;;;;43.57;20.63;;;12.30;84.30;;;;;;10195249;29;20298;-93
2022/01/27 00:14:33;;;;;;;36.90;20.60;;;11.80;86.90;;;;;;10194789;29;20233;-93
2022/01/27 00:19:36;;;;;;;32.03;21.87;;;11.60;84.40;;;;;;10211762;29;20275;-93
2022/01/27 00:24:38;;;;;;;35.67;19.67;;;12.20;85.00;;;;;;10195377;29;20231;-93
2022/01/27 00:29:41;;;;;;;28.57;18.27;;;11.90;81.60;;;;;;10212062;29;20216;-93
2022/01/27 00:34:43;;;;;;;34.83;18.63;;;11.00;88.80;;;;;;10194991;29;20259;-92
2022/01/27 00:39:46;;;;;;;47.27;21.83;;;10.90;89.80;;;;;;10211896;29;20199;-93
2022/01/27 00:44:48;;;;;;;38.93;20.27;;;10.50;80.30;;;;;;10194835;29;20635;-93
2022/01/27 00:49:51;;;;;;;29.60;16.27;;;9.90;90.20;;;;;;10193545;29;20254;-93
2022/01/27 00:54:54;;;;;;;24.23;15.17;;;11.40;90.00;;;;;;10211048;29;20902;-92
2022/01/27 01:00:00;;;;;;;25.10;15.47;;;12.00;85.20;;;;;;10209604;29;20204;-93
2022/01/27 01:15:34;;;;;;;25.13;14.33;;;10.00;93.40;;;;;;10210969;29;20215;-92
2022/01/27 01:36:37;;;;;;;19.53;13.00;;;11.00;85.10;;;;;;10210379;29;20742;-92
2022/01/27 01:41:41;;;;;;;23.80;13.17;;;11.80;88.00;;;;;;10193293;29;20222;-93
2022/01/27 01:46:44;;;;;;;21.70;12.77;;;11.70;87.20;;;;;;10210379;29;20207;-93
2022/01/27 01:51:46;;;;;;;21.83;12.63;;;11.80;86.60;;;;;;10216304;29;20203;-93
2022/01/27 01:56:50;;;;;;;21.33;13.27;;;12.10;81.80;;;;;;10217793;29;20223;-91
2022/01/27 02:01:53;;;;;;;27.83;15.30;;;11.70;86.90;;;;;;10216325;29;20207;-93
2022/01/27 02:06:59;;;;;;;21.77;12.37;;;11.10;84.80;;;;;;10176904;29;20228;-93
2022/01/27 02:22:44;;;;;;;17.47;11.27;;;11.70;86.20;;;;;;10175721;29;20681;-93
2022/01/27 02:27:51;;;;;;;24.53;13.30;;;11.80;82.20;;;;;;10177168;29;20199;-93
2022/01/27 02:32:54;;;;;;;18.30;11.80;;;11.80;85.10;;;;;;10177348;29;20204;-92
2022/01/27 02:37:57;;;;;;;32.77;17.47;;;12.40;84.00;;;;;;10175343;29;20208;-93
2022/01/27 02:43:00;;;;;;;16.60;11.50;;;11.30;77.40;;;;;;10177103;29;20610;-92
2022/01/27 02:48:03;;;;;;;22.60;12.37;;;12.20;85.10;;;;;;10176431;29;20788;-93
2022/01/27 02:53:09;;;;;;;25.27;14.00;;;10.20;90.60;;;;;;10174706;29;20232;-93
2022/01/27 02:58:11;;;;;;;26.80;14.90;;;10.50;87.60;;;;;;10159039;29;20354;-93
2022/01/27 03:03:14;;;;;;;26.47;15.40;;;10.10;89.20;;;;;;10173499;29;20263;-93
2022/01/27 03:08:17;;;;;;;22.30;12.83;;;10.40;81.10;;;;;;10197878;29;20187;-92
2022/01/27 03:13:19;;;;;;;17.50;11.47;;;10.30;90.20;;;;;;10197526;29;20293;-93
2022/01/27 03:18:22;;;;;;;18.47;11.10;;;11.20;90.40;;;;;;10214846;29;20223;-91
2022/01/27 03:23:25;;;;;;;17.33;11.10;;;11.30;90.00;;;;;;10196761;29;20235;-92
2022/01/27 03:28:29;;;;;;;15.70;10.77;;;11.50;87.80;;;;;;10214094;29;20687;-92
2022/01/27 03:33:32;;;;;;;14.80;9.93;;;12.20;84.70;;;;;;10196110;29;20219;-93
2022/01/27 03:38:34;;;;;;;17.93;10.30;;;12.10;86.00;;;;;;10213951;29;20195;-93
2022/01/27 03:43:39;;;;;;;18.37;11.63;;;12.30;83.80;;;;;;10196683;29;20286;-93
2022/01/27 03:48:42;;;;;;;18.73;12.80;;;10.70;88.30;;;;;;10213644;29;20203;-93
2022/01/27 03:53:44;;;;;;;18.93;11.07;;;10.40;89.30;;;;;;10196720;29;20247;-93
2022/01/27 03:58:48;;;;;;;21.60;12.20;;;10.60;91.90;;;;;;10195897;29;20266;-92
2022/01/27 04:03:55;;;;;;;24.53;13.80;;;11.10;84.20;;;;;;10196170;29;20263;-91
2022/01/27 04:08:58;;;;;;;18.43;11.10;;;11.10;80.60;;;;;;10195458;29;20631;-92
2022/01/27 04:14:01;;;;;;;34.97;16.80;;;12.20;81.50;;;;;;10212073;29;20261;-93
2022/01/27 04:19:03;;;;;;;20.57;13.03;;;11.20;75.80;;;;;;10195943;29;20325;-93
2022/01/27 04:24:08;;;;;;;14.77;10.07;;;11.30;84.60;;;;;;10212058;29;20278;-93
2022/01/27 04:29:11;;;;;;;16.97;11.20;;;12.00;85.60;;;;;;10177470;29;20243;-93
2022/01/27 04:34:14;;;;;;;18.93;12.73;;;11.40;85.90;;;;;;10211807;29;20255;-92
2022/01/27 04:39:28;;;;;;;16.10;10.17;;;11.50;85.30;;;;;;10211457;29;20199;-92
2022/01/27 04:44:37;;;;;;;17.37;11.33;;;12.30;84.00;;;;;;10194191;29;20751;-93
2022/01/27 04:49:40;;;;;;;17.63;11.23;;;10.30;88.30;;;;;;10211434;29;20202;-93
2022/01/27 04:54:57;;;;;;;22.67;13.47;;;11.90;84.70;;;;;;10194446;29;20242;-93
2022/01/27 05:00:01;;;;;;;17.43;11.17;;;11.70;82.30;;;;;;10193204;29;20211;-93
2022/01/27 05:05:04;;;;;;;19.10;12.27;;;11.80;85.40;;;;;;10178545;29;20234;-94
2022/01/27 05:10:26;;;;;;;18.20;11.47;;;11.40;84.70;;;;;;10210423;29;20258;-93
2022/01/27 05:15:29;;;;;;;25.13;13.93;;;11.70;85.80;;;;;;10192556;29;20255;-92
2022/01/27 05:20:31;;;;;;;15.57;10.50;;;11.10;81.10;;;;;;10193353;29;20222;-92
2022/01/27 05:25:34;;;;;;;16.47;10.53;;;12.00;79.80;;;;;;10193120;29;20203;-93
2022/01/27 05:30:37;;;;;;;13.67;10.03;;;11.80;85.10;;;;;;10210926;29;20203;-93
2022/01/27 05:35:39;;;;;;;13.30;9.07;;;12.20;84.00;;;;;;10192478;29;20254;-92
2022/01/27 05:40:43;;;;;;;23.73;12.77;;;11.90;82.20;;;;;;10208515;29;20544;-92
2022/01/27 05:45:46;;;;;;;14.90;10.37;;;11.40;79.40;;;;;;10192033;29;20226;-93
2022/01/27 05:50:48;;;;;;;14.90;10.17;;;12.00;84.20;;;;;;10192000;29;20239;-92
2022/01/27 05:55:51;;;;;;;13.90;9.70;;;11.80;84.20;;;;;;10208569;29;20699;-92
2022/01/27 06:00:54;;;;;;;16.93;9.70;;;11.40;83.40;;;;;;10190422;29;20231;-90
2022/01/27 06:05:56;;;;;;;13.10;8.57;;;12.50;80.90;;;;;;10190114;29;20263;-90
2022/01/27 06:10:59;;;;;;;12.93;8.53;;;12.40;77.90;;;;;;10174744;29;20686;-92
2022/01/27 06:16:09;;;;;;;15.07;9.10;;;12.40;80.50;;;;;;10172263;29;20252;-91
2022/01/27 06:21:13;;;;;;;14.23;9.83;;;10.30;85.40;;;;;;10170437;29;20232;-91
2022/01/27 06:26:15;;;;;;;17.03;10.50;;;8.90;91.00;;;;;;10174660;29;20747;-91
2022/01/27 06:31:18;;;;;;;13.13;9.43;;;10.20;80.60;;;;;;10178680;29;20239;-91
2022/01/27 06:36:20;;;;;;;19.90;12.27;;;9.90;90.60;;;;;;10188951;29;20283;-92
2022/01/27 06:41:28;;;;;;;12.27;8.30;;;9.60;82.50;;;;;;10162070;29;20231;-90
2022/01/27 06:46:32;;;;;;;12.10;7.87;;;9.10;91.70;;;;;;10175791;29;20263;-91
2022/01/27 06:51:35;;;;;;;14.27;8.50;;;8.80;93.50;;;;;;10194432;29;20275;-90
2022/01/27 06:56:39;;;;;;;15.73;9.07;;;9.70;92.10;;;;;;10163969;29;20295;-91
2022/01/27 07:01:42;;;;;;;19.10;11.17;;;11.00;86.90;;;;;;10171540;29;21055;-91
2022/01/27 07:06:47;;;;;;;13.30;8.67;;;9.80;83.70;;;;;;10194980;29;20267;-91
2022/01/27 07:11:49;;;;;;;11.10;8.33;;;10.50;87.60;;;;;;10177908;29;20751;-91
2022/01/27 07:16:52;;;;;;;14.97;8.73;;;11.40;85.80;;;;;;10178746;29;20251;-92
2022/01/27 07:21:55;;;;;;;14.37;7.77;;;11.60;84.50;;;;;;10194512;29;20238;-91
2022/01/27 07:26:57;;;;;;;13.10;8.90;;;12.50;80.50;;;;;;10195085;29;20290;-91
2022/01/27 07:32:00;;;;;;;14.13;10.10;;;11.50;83.00;;;;;;10172704;29;20247;-91
2022/01/27 07:37:03;;;;;;;9.80;7.17;;;11.30;81.90;;;;;;10161063;29;20302;-90
2022/01/27 07:42:06;;;;;;;11.83;8.13;;;11.90;83.70;;;;;;10211699;29;20238;-91
2022/01/27 07:47:10;;;;;;;10.50;7.53;;;10.00;90.10;;;;;;10193779;29;20204;-90
2022/01/27 07:52:12;;;;;;;12.80;8.50;;;11.40;85.30;;;;;;10159626;29;20294;-89
2022/01/27 07:57:16;;;;;;;10.57;7.67;;;11.90;77.70;;;;;;10193567;29;20712;-90
2022/01/27 08:02:19;;;;;;;11.37;7.80;;;12.20;79.40;;;;;;10193840;29;20285;-89
2022/01/27 08:07:22;;;;;;;10.03;7.53;;;12.60;81.50;;;;;;10210387;29;20669;-91
2022/01/27 08:12:25;;;;;;;11.50;6.90;;;12.70;78.40;;;;;;10187917;29;20636;-91
2022/01/27 08:17:29;;;;;;;10.13;6.90;;;12.70;80.90;;;;;;10192821;29;20263;-91
2022/01/27 08:22:36;;;;;;;9.53;6.73;;;12.20;79.90;;;;;;10209489;29;20228;-91
2022/01/27 08:27:41;;;;;;;10.93;7.30;;;11.90;82.80;;;;;;10208467;29;20290;-91
2022/01/27 08:32:47;;;;;;;8.57;7.00;;;12.10;80.70;;;;;;10192834;29;20285;-92
2022/01/27 08:37:51;;;;;;;9.00;6.70;;;12.20;82.50;;;;;;10187473;29;20256;-91
2022/01/27 08:42:54;;;;;;;8.77;7.07;;;12.60;81.30;;;;;;10186399;29;20290;-92
2022/01/27 08:47:58;;;;;;;7.87;6.20;;;12.70;77.70;;;;;;10192538;29;20247;-92
2022/01/27 08:53:01;;;;;;;8.07;6.50;;;12.70;80.70;;;;;;10209462;29;20273;-91
2022/01/27 08:58:03;;;;;;;10.53;7.03;;;12.60;80.80;;;;;;10190232;29;20259;-90
2022/01/27 09:03:06;;;;;;;8.07;6.40;;;12.50;81.10;;;;;;10190999;29;20282;-90
2022/01/27 09:08:09;;;;;;;8.70;6.13;;;11.10;80.90;;;;;;10186264;29;21030;-91
2022/01/27 09:13:12;;;;;;;7.70;6.00;;;11.30;81.60;;;;;;10191001;29;20242;-91
2022/01/27 09:18:15;;;;;;;8.10;5.70;;;12.10;83.10;;;;;;10190822;29;20262;-90
2022/01/27 09:23:18;;;;;;;7.43;6.47;;;11.90;83.00;;;;;;10191102;29;20210;-90
2022/01/27 09:28:20;;;;;;;8.13;5.90;;;11.90;81.00;;;;;;10173909;29;20246;-89
2022/01/27 09:33:23;;;;;;;8.43;6.20;;;12.30;82.80;;;;;;10190215;29;20266;-90
2022/01/27 09:38:25;;;;;;;5.93;5.37;;;12.60;77.10;;;;;;10166826;29;20246;-90
2022/01/27 09:43:29;;;;;;;8.67;6.10;;;12.30;81.80;;;;;;10189877;29;20292;-90
2022/01/27 09:48:40;;;;;;;8.07;5.70;;;10.60;79.50;;;;;;10170743;29;20228;-90
2022/01/27 09:53:43;;;;;;;7.50;5.77;;;11.40;86.10;;;;;;10163318;29;20262;-90
2022/01/27 09:58:46;;;;;;;6.40;5.43;;;11.80;83.60;;;;;;10162647;29;20263;-89
2022/01/27 10:04:15;;;;;;;8.47;5.97;;;12.00;81.70;;;;;;10174225;29;20258;-90
2022/01/27 10:09:18;;;;;;;9.10;5.77;;;12.00;82.00;;;;;;10187918;29;20242;-92
2022/01/27 10:14:25;;;;;;;7.60;6.07;;;12.30;79.60;;;;;;10181685;29;20925;-90
2022/01/27 10:19:29;;;;;;;9.27;5.93;;;12.70;79.40;;;;;;10180825;29;20319;-90
2022/01/27 10:24:34;;;;;;;8.47;6.07;;;12.80;78.80;;;;;;10180693;29;20680;-92
2022/01/27 10:29:49;;;;;;;7.87;5.63;;;12.50;76.20;;;;;;10196943;29;20310;-90
2022/01/27 10:34:54;;;;;;;8.43;6.63;;;12.60;79.60;;;;;;10196593;29;20257;-91
2022/01/27 10:39:57;;;;;;;7.57;6.33;;;12.80;78.90;;;;;;10209772;29;20194;-94
2022/01/27 10:45:06;;;;;;;7.00;6.30;;;12.50;79.20;;;;;;10187224;29;20637;-91
2022/01/27 10:50:10;;;;;;;10.60;7.43;;;12.70;78.40;;;;;;10194671;29;20233;-91
2022/01/27 10:55:20;;;;;;;11.60;7.57;;;12.80;75.50;;;;;;10198159;29;20262;-91
2022/01/27 11:00:24;;;;;;;7.37;6.30;;;11.30;81.80;;;;;;10214691;29;20263;-91
2022/01/27 11:05:40;;;;;;;8.57;6.30;;;12.20;80.50;;;;;;10197645;29;20235;-91
2022/01/27 11:10:45;;;;;;;11.50;7.37;;;12.50;79.30;;;;;;10203250;29;20266;-91
2022/01/27 11:15:48;;;;;;;10.60;7.20;;;12.10;77.90;;;;;;10257723;29;20222;-90
2022/01/27 11:25:58;;;;;;;9.17;6.37;;;12.70;78.40;;;;;;10244417;28;20248;-90
2022/01/27 11:31:45;;;;;;;8.23;6.40;;;12.80;78.00;;;;;;10246135;28;20187;-91
2022/01/27 11:37:05;;;;;;;7.87;6.47;;;12.50;79.00;;;;;;10089163;29;20229;-91
2022/01/27 11:42:08;;;;;;;7.43;6.27;;;12.60;78.70;;;;;;10094869;29;20234;-90
2022/01/27 11:47:12;;;;;;;15.30;8.73;;;12.70;78.30;;;;;;10132852;29;20190;-91
2022/01/27 11:52:27;;;;;;;9.47;6.23;;;11.70;77.40;;;;;;10092921;29;20209;-91
2022/01/27 11:58:00;;;;;;;11.53;7.83;;;12.30;79.40;;;;;;10069489;29;20233;-91
2022/01/27 12:03:03;;;;;;;11.63;8.07;;;12.00;78.70;;;;;;10019429;29;20206;-91
2022/01/27 12:08:15;;;;;;;9.90;7.13;;;12.70;77.50;;;;;;10047235;29;1168206;-91
2022/01/27 12:13:44;;;;;;;10.40;7.77;;;12.60;78.70;;;;;;10152889;29;20283;-91
2022/01/27 12:19:08;;;;;;;10.27;7.20;;;12.60;78.70;;;;;;10161317;29;20869;-91
2022/01/27 12:24:11;;;;;;;10.93;7.40;;;12.60;77.90;;;;;;10146050;29;20628;-91
2022/01/27 12:29:41;;;;;;;9.13;6.90;;;12.30;79.80;;;;;;10199537;29;20262;-91
2022/01/27 12:34:49;;;;;;;10.27;7.70;;;12.40;79.80;;;;;;10193946;29;20576;-90
2022/01/27 12:39:54;;;;;;;10.63;7.53;;;12.80;77.20;;;;;;10210051;29;20732;-89
2022/01/27 12:45:03;;;;;;;8.30;6.53;;;12.90;77.00;;;;;;10179143;29;20235;-89
2022/01/27 12:50:20;;;;;;;8.63;6.33;;;13.30;75.80;;;;;;10144990;29;20244;-89
2022/01/27 12:55:28;;;;;;;10.07;7.27;;;12.40;79.20;;;;;;10187003;29;20666;-89
2022/01/27 13:00:45;;;;;;;9.03;6.60;;;12.80;77.60;;;;;;10170899;29;20228;-88
2022/01/27 13:05:53;;;;;;;11.77;7.23;;;12.90;77.70;;;;;;10207194;29;20262;-90
2022/01/27 13:10:58;;;;;;;8.20;7.10;;;12.10;78.20;;;;;;10174128;29;20238;-89
2022/01/27 13:16:05;;;;;;;12.87;8.20;;;12.20;80.00;;;;;;10189219;29;20258;-89
2022/01/27 13:21:25;;;;;;;12.57;8.30;;;12.20;77.20;;;;;;10207985;29;20291;-89
2022/01/27 13:26:28;;;;;;;14.33;8.47;;;12.30;78.50;;;;;;10174360;29;20219;-89
2022/01/27 13:31:30;;;;;;;8.00;6.47;;;12.10;76.80;;;;;;10176212;29;20299;-89
2022/01/27 13:36:36;;;;;;;11.90;6.90;;;12.20;79.70;;;;;;10205468;29;20321;-89
2022/01/27 13:41:41;;;;;;;7.93;7.00;;;12.80;77.40;;;;;;10201740;29;20248;-90
2022/01/27 13:46:58;;;;;;;12.63;8.40;;;12.70;78.10;;;;;;10169881;29;20236;-90
2022/01/27 13:52:13;;;;;;;9.80;6.70;;;11.90;79.70;;;;;;10173935;29;20227;-90
2022/01/27 13:57:27;;;;;;;11.37;8.20;;;12.20;79.20;;;;;;10173903;29;20274;-90
2022/01/27 14:02:33;;;;;;;11.07;7.80;;;12.40;77.70;;;;;;10173449;29;20337;-89
2022/01/27 14:07:37;;;;;;;9.33;7.53;;;12.60;77.40;;;;;;10173003;29;20358;-89
2022/01/27 14:12:44;;;;;;;10.10;6.90;;;12.00;78.40;;;;;;10173008;29;20255;-90
2022/01/27 14:18:03;;;;;;;9.27;7.00;;;12.60;77.90;;;;;;10178530;29;20318;-90
2022/01/27 14:23:18;;;;;;;11.20;7.67;;;12.60;78.50;;;;;;10192158;29;20233;-89
2022/01/27 14:28:22;;;;;;;9.07;6.93;;;12.10;79.40;;;;;;10190646;29;20242;-90
2022/01/27 14:33:24;;;;;;;11.03;7.00;;;12.40;78.60;;;;;;10180792;29;20235;-89
2022/01/27 14:38:27;;;;;;;10.03;7.33;;;12.20;77.60;;;;;;10172803;29;20251;-90
2022/01/27 14:43:31;;;;;;;7.67;5.93;;;11.90;79.80;;;;;;10172567;29;20239;-91
2022/01/27 14:48:39;;;;;;;8.73;6.20;;;12.60;79.40;;;;;;10172052;29;20236;-89
2022/01/27 14:53:41;;;;;;;9.63;7.20;;;11.70;80.70;;;;;;10171982;29;20632;-90
2022/01/27 14:58:43;;;;;;;10.73;7.10;;;12.10;80.70;;;;;;10154087;29;20318;-90
2022/01/27 15:03:46;;;;;;;11.43;7.67;;;12.40;79.40;;;;;;10184531;29;20266;-90
2022/01/27 15:08:50;;;;;;;12.03;6.53;;;12.00;78.40;;;;;;10209884;29;20298;-89
2022/01/27 15:18:48;;;;;;;14.60;7.93;;;12.20;80.50;;;;;;10171569;29;20235;-90
2022/01/27 15:19:36;;;;;;;10.73;7.40;;;11.50;78.80;;;;;;10169487;29;20672;-89
2022/01/27 15:24:40;;;;;;;12.80;8.10;;;10.60;83.10;;;;;;10151477;29;20286;-90
2022/01/27 15:29:43;;;;;;;12.73;8.63;;;11.10;80.60;;;;;;10154706;29;20208;-89
2022/01/27 15:34:45;;;;;;;10.93;6.60;;;11.40;80.20;;;;;;10170622;29;20240;-89
2022/01/27 15:39:54;;;;;;;13.80;7.30;;;12.00;79.30;;;;;;9814318;29;9999668;-89
2022/01/27 15:44:56;;;;;;;12.03;7.40;;;12.30;78.50;;;;;;10167558;29;20239;-88
2022/01/27 15:49:59;;;;;;;11.27;7.57;;;12.40;77.60;;;;;;10129276;29;20292;-89
2022/01/27 15:55:05;;;;;;;10.63;6.97;;;11.60;80.90;;;;;;10130304;29;20232;-89
2022/01/27 16:00:09;;;;;;;9.07;6.93;;;11.50;79.30;;;;;;10128142;29;20328;-87
2022/01/27 16:05:16;;;;;;;9.93;6.50;;;12.20;79.20;;;;;;10155605;29;20299;-87
2022/01/27 16:10:21;;;;;;;13.10;8.83;;;12.20;79.40;;;;;;10166657;29;20331;-87
2022/01/27 16:15:25;;;;;;;10.63;7.63;;;11.10;81.80;;;;;;10167681;29;20748;-87
2022/01/27 16:20:28;;;;;;;11.60;7.97;;;11.80;80.60;;;;;;10166450;29;20251;-87
2022/01/27 16:25:30;;;;;;;11.87;7.87;;;12.20;78.10;;;;;;10165858;29;20264;-87
2022/01/27 16:30:33;;;;;;;9.97;7.13;;;12.20;79.10;;;;;;10166514;29;20358;-86
2022/01/27 16:35:37;;;;;;;8.63;6.27;;;12.70;77.90;;;;;;10175311;29;20231;-87
2022/01/27 16:40:40;;;;;;;10.50;7.50;;;12.40;78.50;;;;;;10169013;29;20252;-86
2022/01/27 16:45:43;;;;;;;11.30;7.03;;;12.70;77.60;;;;;;10176401;29;20635;-87
2022/01/27 16:50:45;;;;;;;8.40;6.60;;;12.60;78.20;;;;;;10161009;29;20255;-87
2022/01/27 16:55:49;;;;;;;10.77;7.53;;;12.30;78.80;;;;;;10167840;29;20231;-87
2022/01/27 17:00:52;;;;;;;10.93;7.50;;;12.60;78.20;;;;;;10164220;29;20283;-87
2022/01/27 17:05:55;;;;;;;14.53;7.83;;;12.40;78.60;;;;;;10135887;29;20314;-87
2022/01/27 17:10:58;;;;;;;11.03;8.17;;;12.40;77.00;;;;;;10165207;29;20301;-87
2022/01/27 17:16:01;;;;;;;9.43;6.63;;;12.50;78.20;;;;;;10157620;29;20232;-86
2022/01/27 17:21:06;;;;;;;10.80;7.50;;;12.50;78.90;;;;;;10157370;29;20315;-87
2022/01/27 17:26:09;;;;;;;12.73;7.93;;;12.00;79.70;;;;;;10165372;29;20235;-87
2022/01/27 17:31:12;;;;;;;14.60;8.17;;;10.80;89.20;;;;;;10181219;29;20259;-87
2022/01/27 17:36:14;;;;;;;13.17;7.83;;;11.20;88.70;;;;;;10163828;29;20298;-85
2022/01/27 17:41:26;;;;;;;16.03;7.30;;;10.70;93.50;;;;;;10166339;29;20269;-86
2022/01/27 17:46:29;;;;;;;14.60;8.00;;;12.60;88.40;;;;;;10157633;29;20286;-86
2022/01/27 17:51:31;;;;;;;11.00;7.27;;;12.40;84.00;;;;;;10146990;29;20251;-85
2022/01/27 17:56:34;;;;;;;11.70;7.33;;;13.10;82.50;;;;;;10128826;29;20284;-86
2022/01/27 18:01:37;;;;;;;9.83;6.77;;;12.90;82.30;;;;;;10161017;29;20694;-86
2022/01/27 18:06:40;;;;;;;10.50;7.30;;;13.10;81.10;;;;;;10163026;29;20315;-85
2022/01/27 18:11:45;;;;;;;12.27;7.50;;;12.90;81.50;;;;;;10163786;29;20282;-85
2022/01/27 18:16:53;;;;;;;12.50;7.63;;;12.20;81.90;;;;;;10164527;29;20236;-85
2022/01/27 18:21:56;;;;;;;12.60;8.10;;;12.60;81.90;;;;;;10159582;29;20231;-86
2022/01/27 18:26:58;;;;;;;13.63;8.27;;;12.60;81.10;;;;;;10165519;29;20224;-85
2022/01/27 18:32:02;;;;;;;16.60;8.50;;;12.80;80.10;;;;;;10167814;29;20239;-85
2022/01/27 18:37:04;;;;;;;12.37;7.90;;;12.30;80.10;;;;;;10167479;29;20302;-85
2022/01/27 18:42:07;;;;;;;10.63;7.80;;;12.90;79.80;;;;;;10168986;29;20236;-85
2022/01/27 18:47:11;;;;;;;9.63;7.37;;;12.70;80.30;;;;;;10170938;29;20239;-86
2022/01/27 18:52:13;;;;;;;10.73;7.00;;;12.00;81.70;;;;;;10171381;29;20615;-85
2022/01/27 18:57:16;;;;;;;11.90;6.90;;;12.40;81.40;;;;;;10166538;29;20256;-85
2022/01/27 19:02:18;;;;;;;13.17;7.40;;;12.50;80.80;;;;;;10170439;29;20231;-85
2022/01/27 19:07:21;;;;;;;10.87;6.83;;;11.70;83.10;;;;;;10169021;29;20263;-85
2022/01/27 19:12:26;;;;;;;12.37;7.80;;;12.00;82.10;;;;;;10166901;29;20235;-85
2022/01/27 19:17:29;;;;;;;12.80;7.60;;;11.80;83.60;;;;;;10171472;29;20235;-85
2022/01/27 19:22:31;;;;;;;10.57;7.87;;;11.70;83.70;;;;;;10168469;29;20239;-86
2022/01/27 19:27:34;;;;;;;7.77;6.27;;;11.50;85.50;;;;;;10169191;29;20287;-85
2022/01/27 19:32:42;;;;;;;11.10;7.20;;;11.50;83.90;;;;;;10163268;29;20683;-85
2022/01/27 19:37:45;;;;;;;10.37;6.47;;;11.90;83.90;;;;;;10171573;29;20310;-85
2022/01/27 19:42:49;;;;;;;10.60;7.30;;;12.10;81.90;;;;;;10169750;29;20235;-86
2022/01/27 19:47:52;;;;;;;10.00;6.87;;;12.20;82.90;;;;;;10174842;29;20640;-86
2022/01/27 19:52:55;;;;;;;9.33;7.70;;;12.20;79.90;;;;;;10168346;29;20796;-86
2022/01/27 19:57:58;;;;;;;11.03;7.37;;;12.00;83.00;;;;;;10169373;29;20779;-85
2022/01/27 20:03:04;;;;;;;10.00;7.17;;;12.50;81.30;;;;;;10154230;29;20203;-85
2022/01/27 20:08:09;;;;;;;8.20;6.07;;;12.10;80.60;;;;;;10170445;29;20259;-86
2022/01/27 20:13:12;;;;;;;10.13;6.80;;;12.50;81.30;;;;;;10168709;29;20793;-85
2022/01/27 20:18:16;;;;;;;9.63;6.60;;;12.70;80.50;;;;;;10169762;29;20306;-86
2022/01/27 20:23:19;;;;;;;10.57;6.47;;;12.40;80.50;;;;;;10167693;29;20259;-86
2022/01/27 20:28:23;;;;;;;9.83;6.53;;;12.40;80.30;;;;;;10194818;29;20282;-86
2022/01/27 20:33:26;;;;;;;14.40;6.97;;;12.60;80.60;;;;;;10200542;29;20227;-86
2022/01/27 20:38:29;;;;;;;11.47;7.87;;;12.00;80.70;;;;;;10180471;29;20250;-86
2022/01/27 20:43:31;;;;;;;10.60;6.67;;;12.20;81.70;;;;;;10183718;29;20228;-86
2022/01/27 20:48:34;;;;;;;11.20;5.83;;;11.80;83.20;;;;;;10184721;29;20254;-86
2022/01/27 20:53:39;;;;;;;8.57;6.47;;;11.40;82.10;;;;;;10186307;29;20289;-86
2022/01/27 20:58:42;;;;;;;11.47;7.13;;;12.10;80.40;;;;;;10179332;29;20255;-86
2022/01/27 21:03:45;;;;;;;9.17;6.50;;;11.80;82.70;;;;;;10183352;29;20250;-86
2022/01/27 21:08:47;;;;;;;9.50;6.60;;;10.90;84.50;;;;;;10186064;29;20234;-86
2022/01/27 21:13:52;;;;;;;9.50;6.60;;;11.70;84.50;;;;;;10168648;29;20251;-86
2022/01/27 21:18:55;;;;;;;8.03;5.77;;;12.20;82.20;;;;;;10168230;29;20251;-85
2022/01/27 21:23:57;;;;;;;10.53;6.73;;;11.90;82.70;;;;;;10158299;29;20254;-85
2022/01/27 21:29:00;;;;;;;8.93;5.33;;;12.20;81.20;;;;;;10185001;29;20274;-85
2022/01/27 21:34:03;;;;;;;7.60;4.80;;;11.60;83.70;;;;;;10184062;29;20645;-85
2022/01/27 21:39:05;;;;;;;6.50;4.33;;;11.50;84.00;;;;;;10187906;29;20246;-86
2022/01/27 21:44:08;;;;;;;9.03;6.43;;;11.40;81.80;;;;;;10165883;29;20349;-86
2022/01/27 21:49:11;;;;;;;7.10;5.63;;;10.10;90.10;;;;;;10128796;29;20638;-86
2022/01/27 21:54:13;;;;;;;7.47;3.63;;;11.90;83.30;;;;;;10157184;29;20239;-86
2022/01/27 21:59:21;;;;;;;12.37;3.43;;;11.10;79.50;;;;;;10136072;29;20780;-86
2022/01/27 22:04:23;;;;;;;8.30;5.47;;;9.70;83.80;;;;;;10161799;29;20701;-86
2022/01/27 22:09:26;;;;;;;8.97;4.70;;;11.40;86.10;;;;;;10189398;29;20235;-85
2022/01/27 22:14:28;;;;;;;7.87;5.67;;;11.30;82.90;;;;;;10189931;29;20247;-85
2022/01/27 22:19:31;;;;;;;7.53;5.20;;;12.10;81.90;;;;;;10173527;29;20754;-86
2022/01/27 22:24:33;;;;;;;8.33;5.63;;;12.10;81.70;;;;;;10175623;29;20204;-86
2022/01/27 22:29:36;;;;;;;6.63;4.73;;;12.30;80.90;;;;;;10156766;29;20628;-85
2022/01/27 22:34:39;;;;;;;7.93;3.67;;;12.10;81.40;;;;;;10173989;29;20227;-85
2022/01/27 22:39:41;;;;;;;5.27;4.17;;;11.50;76.10;;;;;;10174818;29;20255;-85
2022/01/27 22:44:59;;;;;;;5.90;3.87;;;12.20;78.30;;;;;;10173692;29;20289;-85
2022/01/27 22:50:07;;;;;;;6.20;4.40;;;11.40;78.30;;;;;;10187163;29;20227;-84
2022/01/27 22:55:10;;;;;;;5.13;3.50;;;12.10;80.80;;;;;;10204316;29;20235;-84
2022/01/27 23:00:20;;;;;;;5.60;4.17;;;12.40;78.10;;;;;;10193380;29;20275;-84
2022/01/27 23:05:22;;;;;;;5.83;3.77;;;12.70;77.60;;;;;;10190590;29;20693;-85
2022/01/27 23:10:25;;;;;;;4.20;3.17;;;12.70;75.70;;;;;;10173668;29;20286;-85
2022/01/27 23:20:37;;;;;;;4.07;2.87;;;12.50;75.50;;;;;;10191424;29;20660;-85
2022/01/27 23:25:48;;;;;;;5.40;3.10;;;12.70;76.80;;;;;;10174111;29;20224;-85
2022/01/27 23:30:53;;;;;;;4.70;2.70;;;12.00;80.10;;;;;;10171906;29;20980;-85
2022/01/27 23:35:59;;;;;;;6.43;2.60;;;11.50;78.60;;;;;;10171480;29;20599;-85
2022/01/27 23:41:18;;;;;;;4.90;3.30;;;11.40;78.30;;;;;;10180514;29;20283;-85
2022/01/27 23:57:08;;;;;;;4.10;2.43;;;12.30;75.50;;;;;;10192335;29;20282;-86
